Terminal Aerodrome Forecast
Issued by NWS

Home | Current Version | Previous Version | Text Only | Print | Product List | Glossary On
Versions: 1 2 3 4 5 6 7 8 9 10 11 12 13 14 15 16 17 18
074
FTUS41 KAKQ 240209 AAA
TAFPHF
TAF AMD
KPHF 240209Z 2402/2424 07010KT P6SM -RA OVC015
      TEMPO 2402/2406 SCT015 OVC050
     FM240800 06012G19KT 5SM -RA OVC008
     FM241200 05013G20KT 4SM -RA OVC005
     FM241500 06014G20KT 3SM -RA OVC007=

USA.gov is the U.S. government's official web portal to all federal, state and local government web resources and services.